createdAt,value
2018-06-30T00:02:23.243Z,3.67
2018-06-30T00:04:52.045Z,3.60
2018-06-30T00:07:21.001Z,4.05
2018-06-30T00:09:48.647Z,3.45
2018-06-30T00:12:16.506Z,3.50
2018-06-30T00:14:44.174Z,3.60
2018-06-30T00:17:12.309Z,3.90
2018-06-30T00:19:39.957Z,3.55
2018-06-30T00:22:07.670Z,3.40
2018-06-30T00:24:35.370Z,3.85
2018-06-30T00:27:08.670Z,4.37
2018-06-30T00:29:36.438Z,3.75
2018-06-30T00:32:04.222Z,3.50
2018-06-30T00:34:31.930Z,4.42
2018-06-30T00:36:59.623Z,4.10
2018-06-30T00:39:27.286Z,4.00
2018-06-30T00:41:54.972Z,4.42
2018-06-30T00:44:22.649Z,4.72
2018-06-30T00:46:50.346Z,3.45
2018-06-30T00:49:19.176Z,3.83
2018-06-30T00:51:46.883Z,3.35
2018-06-30T00:54:14.602Z,3.58
2018-06-30T00:56:42.266Z,3.10
2018-06-30T00:59:09.924Z,3.40
2018-06-30T01:01:37.571Z,2.85
2018-06-30T01:04:05.272Z,2.95
2018-06-30T01:06:32.925Z,3.05
2018-06-30T01:09:00.556Z,2.90
2018-06-30T01:11:28.243Z,3.20
2018-06-30T01:13:55.913Z,3.17
2018-06-30T01:16:23.824Z,2.30
2018-06-30T01:18:51.458Z,2.67
2018-06-30T01:21:19.529Z,3.17
2018-06-30T01:23:47.274Z,2.10
2018-06-30T01:26:14.918Z,2.15
2018-06-30T01:28:42.593Z,2.30
2018-06-30T01:31:10.228Z,2.37
2018-06-30T01:33:37.856Z,2.50
2018-06-30T01:36:05.582Z,2.60
2018-06-30T01:38:33.213Z,2.50
2018-06-30T01:41:00.874Z,2.30
2018-06-30T01:43:28.527Z,2.08
2018-06-30T01:45:56.157Z,2.08
2018-06-30T01:48:23.838Z,2.30
2018-06-30T01:50:51.507Z,1.95
2018-06-30T01:53:19.146Z,2.10
2018-06-30T01:55:46.800Z,1.80
2018-06-30T01:58:14.455Z,1.85
2018-06-30T02:00:42.114Z,2.00
2018-06-30T02:03:09.741Z,1.80
2018-06-30T02:05:37.368Z,2.08
2018-06-30T02:08:05.244Z,1.55
2018-06-30T02:10:32.905Z,1.70
2018-06-30T02:13:00.547Z,1.35
2018-06-30T02:15:28.211Z,1.22
2018-06-30T02:17:55.850Z,1.55
2018-06-30T02:20:23.518Z,1.30
2018-06-30T02:22:51.164Z,1.50
2018-06-30T02:25:18.834Z,1.10
2018-06-30T02:27:46.469Z,1.10
2018-06-30T02:30:14.119Z,1.20
2018-06-30T02:32:41.782Z,1.50
2018-06-30T02:35:09.420Z,1.17
2018-06-30T02:37:37.090Z,1.40
2018-06-30T02:40:04.888Z,1.10
2018-06-30T02:42:32.567Z,1.47
2018-06-30T02:45:00.215Z,1.10
2018-06-30T02:47:27.851Z,1.10
2018-06-30T02:49:55.527Z,1.42
2018-06-30T02:52:23.188Z,1.50
2018-06-30T02:54:50.893Z,1.35
2018-06-30T02:57:18.561Z,1.07
2018-06-30T02:59:46.226Z,1.10
2018-06-30T03:02:13.926Z,1.12
2018-06-30T03:04:41.593Z,1.00
2018-06-30T03:07:09.254Z,1.20
2018-06-30T03:09:36.981Z,1.30
2018-06-30T03:12:04.707Z,0.85
2018-06-30T03:14:32.586Z,1.05
2018-06-30T03:17:00.296Z,0.90
2018-06-30T03:19:27.939Z,1.00
2018-06-30T03:21:55.615Z,0.80
2018-06-30T03:24:23.271Z,0.90
2018-06-30T03:26:50.914Z,0.80
2018-06-30T03:29:18.614Z,0.80
2018-06-30T03:31:46.333Z,0.90
2018-06-30T03:34:13.914Z,0.90
2018-06-30T03:36:41.593Z,1.00
2018-06-30T03:39:10.604Z,0.85
2018-06-30T03:41:38.270Z,1.00
2018-06-30T03:44:06.048Z,1.00
2018-06-30T03:46:33.657Z,0.80
2018-06-30T03:49:01.308Z,0.80
2018-06-30T03:51:28.936Z,0.98
2018-06-30T03:53:56.743Z,0.90
2018-06-30T03:56:24.565Z,0.90
2018-06-30T03:58:52.388Z,1.07
2018-06-30T04:01:20.001Z,1.00
2018-06-30T04:03:47.654Z,1.12
2018-06-30T04:06:15.322Z,0.78
2018-06-30T04:08:42.977Z,1.15
2018-06-30T04:11:10.683Z,0.90
2018-06-30T04:13:38.301Z,0.90
2018-06-30T04:16:05.958Z,0.85
2018-06-30T04:18:33.630Z,0.93
2018-06-30T04:21:01.289Z,0.98
2018-06-30T04:23:28.942Z,0.88
2018-06-30T04:25:56.594Z,0.98
2018-06-30T04:28:24.241Z,0.88
2018-06-30T04:30:51.883Z,1.00
2018-06-30T04:33:19.551Z,1.00
2018-06-30T04:35:47.198Z,1.00
2018-06-30T04:38:14.929Z,1.42
2018-06-30T04:40:42.567Z,1.00
2018-06-30T04:43:10.221Z,0.90
2018-06-30T04:45:37.926Z,1.05
2018-06-30T04:48:06.131Z,0.93
2018-06-30T04:50:33.790Z,0.90
2018-06-30T04:53:01.406Z,0.90
2018-06-30T04:55:29.094Z,1.22
2018-06-30T04:57:56.718Z,0.78
2018-06-30T05:00:24.395Z,0.85
2018-06-30T05:02:52.041Z,0.95
2018-06-30T05:05:19.656Z,1.32
2018-06-30T05:07:47.304Z,0.90
2018-06-30T05:10:14.926Z,0.90
2018-06-30T05:12:42.552Z,1.50
2018-06-30T05:15:10.198Z,1.25
2018-06-30T05:17:37.842Z,1.00
2018-06-30T05:20:05.549Z,1.15
2018-06-30T05:22:33.208Z,1.20
2018-06-30T05:25:00.890Z,0.95
2018-06-30T05:27:28.584Z,1.12
2018-06-30T05:29:56.594Z,1.02
2018-06-30T05:32:24.232Z,1.37
2018-06-30T05:34:51.841Z,1.15
2018-06-30T05:37:19.570Z,1.62
2018-06-30T05:39:47.259Z,1.00
2018-06-30T05:42:14.885Z,1.00
2018-06-30T05:44:42.534Z,1.12
2018-06-30T05:47:10.214Z,0.90
2018-06-30T05:49:37.900Z,1.20
2018-06-30T05:52:05.603Z,0.90
2018-06-30T05:54:33.224Z,1.00
2018-06-30T05:57:00.891Z,1.10
2018-06-30T05:59:28.627Z,1.00
2018-06-30T06:01:56.230Z,0.98
2018-06-30T06:04:23.884Z,1.17
2018-06-30T06:06:51.612Z,0.85
2018-06-30T06:09:19.258Z,1.10
2018-06-30T06:11:46.915Z,1.00
2018-06-30T06:14:14.579Z,1.00
2018-06-30T06:16:42.197Z,0.95
2018-06-30T06:19:09.838Z,1.02
2018-06-30T06:21:37.529Z,0.90
2018-06-30T06:24:05.304Z,0.85
2018-06-30T06:26:32.979Z,0.90
2018-06-30T06:29:00.666Z,0.90
2018-06-30T06:31:28.325Z,1.00
2018-06-30T06:33:55.970Z,1.02
2018-06-30T06:36:23.622Z,1.00
2018-06-30T06:38:51.247Z,0.80
2018-06-30T06:41:18.871Z,0.90
2018-06-30T06:43:46.488Z,0.80
2018-06-30T06:46:14.146Z,0.90
2018-06-30T06:48:41.782Z,1.50
2018-06-30T06:51:09.399Z,0.70
2018-06-30T06:53:37.105Z,0.80
2018-06-30T06:56:04.778Z,0.90
2018-06-30T06:58:32.485Z,0.80
2018-06-30T07:01:00.116Z,0.75
2018-06-30T07:03:27.761Z,0.98
2018-06-30T07:05:55.431Z,0.90
2018-06-30T07:08:23.150Z,0.95
2018-06-30T07:10:51.155Z,1.00
2018-06-30T07:13:18.821Z,0.80
2018-06-30T07:15:46.479Z,0.88
2018-06-30T07:18:14.235Z,0.88
2018-06-30T07:20:41.878Z,0.80
2018-06-30T07:23:09.519Z,0.70
2018-06-30T07:25:37.233Z,0.80
2018-06-30T07:28:04.886Z,0.80
2018-06-30T07:30:32.524Z,0.98
2018-06-30T07:33:00.201Z,0.90
2018-06-30T07:35:27.899Z,0.80
2018-06-30T07:37:55.675Z,0.90
2018-06-30T07:40:23.330Z,0.90
2018-06-30T07:42:51.025Z,0.90
2018-06-30T07:45:18.687Z,0.90
2018-06-30T07:47:46.393Z,0.78
2018-06-30T07:50:14.161Z,0.75
2018-06-30T07:52:41.791Z,0.80
2018-06-30T07:55:09.413Z,0.98
2018-06-30T07:57:37.070Z,0.90
2018-06-30T08:00:05.023Z,1.50
2018-06-30T08:02:32.674Z,0.95
2018-06-30T08:05:00.334Z,0.90
2018-06-30T08:07:28.069Z,0.98
2018-06-30T08:09:55.823Z,0.70
2018-06-30T08:12:23.674Z,0.70
2018-06-30T08:14:51.328Z,0.75
2018-06-30T08:17:19.011Z,0.82
2018-06-30T08:19:46.775Z,0.70
2018-06-30T08:22:14.420Z,0.70
2018-06-30T08:24:42.150Z,0.82
2018-06-30T08:27:09.853Z,0.80
2018-06-30T08:29:37.749Z,0.80
2018-06-30T08:32:05.419Z,0.68
2018-06-30T08:34:33.058Z,0.80
2018-06-30T08:37:00.830Z,0.95
2018-06-30T08:39:28.512Z,0.90
2018-06-30T08:41:56.184Z,0.80
2018-06-30T08:44:23.908Z,1.10
2018-06-30T08:46:51.474Z,0.75
2018-06-30T08:49:19.177Z,0.80
2018-06-30T08:51:46.911Z,1.00
2018-06-30T08:54:15.170Z,1.00
2018-06-30T08:56:42.862Z,1.00
2018-06-30T08:59:10.527Z,0.90
2018-06-30T09:01:38.208Z,0.60
2018-06-30T09:04:06.009Z,0.98
2018-06-30T09:06:33.713Z,0.75
2018-06-30T09:09:01.443Z,1.00
2018-06-30T09:11:29.552Z,0.88
2018-06-30T09:13:57.266Z,0.75
2018-06-30T09:16:25.431Z,0.80
2018-06-30T09:18:53.431Z,0.90
2018-06-30T09:21:21.060Z,0.70
2018-06-30T09:23:48.730Z,0.70
2018-06-30T09:26:16.381Z,0.70
2018-06-30T09:28:44.031Z,0.78
2018-06-30T09:31:11.692Z,0.68
2018-06-30T09:33:39.353Z,0.90
2018-06-30T09:36:07.398Z,0.82
2018-06-30T09:38:35.158Z,0.80
2018-06-30T09:41:02.857Z,0.62
2018-06-30T09:43:30.496Z,1.15
2018-06-30T09:45:58.217Z,0.72
2018-06-30T09:48:25.880Z,0.80
2018-06-30T09:50:53.593Z,0.80
2018-06-30T09:53:21.252Z,1.07
2018-06-30T09:55:48.913Z,0.90
2018-06-30T09:58:16.618Z,0.80
2018-06-30T10:00:54.693Z,6.83
2018-06-30T10:03:23.178Z,6.50
2018-06-30T10:05:50.856Z,0.90
2018-06-30T10:08:19.629Z,0.88
2018-06-30T10:10:47.290Z,0.57
2018-06-30T10:13:15.139Z,0.70
2018-06-30T10:15:42.930Z,1.10
2018-06-30T10:18:10.680Z,0.90
2018-06-30T10:20:38.410Z,0.75
2018-06-30T10:23:06.130Z,0.80
2018-06-30T10:25:34.138Z,0.80
2018-06-30T10:28:01.842Z,0.80
2018-06-30T10:30:29.537Z,0.70
2018-06-30T10:32:57.234Z,0.70
2018-06-30T10:35:24.884Z,0.70
2018-06-30T10:37:56.008Z,0.80
2018-06-30T10:40:23.576Z,0.80
2018-06-30T10:42:51.353Z,0.80
2018-06-30T10:45:19.012Z,0.87
2018-06-30T10:47:46.700Z,0.83
2018-06-30T10:50:14.390Z,0.75
2018-06-30T10:52:42.069Z,0.90
2018-06-30T10:55:09.786Z,0.70
2018-06-30T10:57:37.531Z,0.70
2018-06-30T11:00:05.425Z,0.77
2018-06-30T11:02:33.130Z,0.83
2018-06-30T11:05:00.839Z,0.60
2018-06-30T11:07:28.531Z,0.80
2018-06-30T11:09:56.905Z,0.80
2018-06-30T11:12:24.550Z,0.70
2018-06-30T11:14:53.088Z,0.60
2018-06-30T11:17:20.810Z,0.80
2018-06-30T11:19:48.606Z,0.80
2018-06-30T11:22:16.281Z,0.70
2018-06-30T11:24:43.929Z,0.90
2018-06-30T11:27:11.615Z,0.70
2018-06-30T11:29:39.245Z,0.73
2018-06-30T11:32:06.926Z,0.70
2018-06-30T11:34:34.533Z,1.00
2018-06-30T11:37:02.205Z,0.73
2018-06-30T11:39:29.896Z,0.90
2018-06-30T11:41:57.603Z,0.80
2018-06-30T11:44:25.262Z,0.93
2018-06-30T11:46:52.946Z,0.77
2018-06-30T11:49:20.533Z,0.90
2018-06-30T11:51:48.230Z,0.97
2018-06-30T11:54:15.902Z,1.13
2018-06-30T11:56:43.609Z,0.70
2018-06-30T11:59:11.237Z,0.87
2018-06-30T12:01:38.890Z,0.80
2018-06-30T12:04:06.515Z,0.70
2018-06-30T12:06:34.182Z,0.80
2018-06-30T12:09:01.846Z,0.80
2018-06-30T12:11:29.542Z,0.80
2018-06-30T12:13:57.155Z,0.80
2018-06-30T12:16:24.810Z,0.90
2018-06-30T12:18:52.461Z,0.70
2018-06-30T12:21:20.169Z,0.70
2018-06-30T12:23:47.857Z,0.90
2018-06-30T12:26:15.502Z,0.70
2018-06-30T12:28:43.164Z,0.63
2018-06-30T12:31:10.843Z,0.83
2018-06-30T12:33:38.480Z,0.70
2018-06-30T12:36:06.162Z,0.70
2018-06-30T12:38:33.881Z,0.77
2018-06-30T12:41:01.563Z,0.73
2018-06-30T12:43:29.247Z,0.80
2018-06-30T12:45:56.889Z,0.70
2018-06-30T12:48:24.578Z,0.80
2018-06-30T12:50:52.235Z,1.00
2018-06-30T12:53:19.914Z,0.80
2018-06-30T12:55:47.742Z,0.80
2018-06-30T12:58:15.373Z,0.80
2018-06-30T13:00:43.042Z,0.70
2018-06-30T13:03:10.747Z,0.80
2018-06-30T13:05:38.419Z,0.70
2018-06-30T13:08:06.094Z,0.73
2018-06-30T13:10:33.846Z,0.80
2018-06-30T13:13:01.489Z,0.90
2018-06-30T13:15:29.135Z,0.70
2018-06-30T13:17:56.795Z,0.73
2018-06-30T13:20:24.464Z,0.80
2018-06-30T13:22:52.139Z,0.60
2018-06-30T13:25:19.753Z,0.70
2018-06-30T13:27:47.422Z,0.90
2018-06-30T13:30:15.074Z,0.80
2018-06-30T13:32:42.760Z,0.77
2018-06-30T13:35:10.416Z,0.80
2018-06-30T13:37:38.124Z,0.80
2018-06-30T13:40:05.823Z,0.90
2018-06-30T13:42:33.590Z,0.90
2018-06-30T13:45:01.242Z,0.70
2018-06-30T13:47:28.890Z,0.77
2018-06-30T13:49:56.531Z,0.80
2018-06-30T13:52:24.201Z,0.83
2018-06-30T13:54:51.907Z,0.60
2018-06-30T13:57:19.605Z,0.70
2018-06-30T13:59:47.271Z,1.00
2018-06-30T14:02:14.926Z,0.70
2018-06-30T14:04:42.552Z,0.70
2018-06-30T14:07:10.240Z,0.80
2018-06-30T14:09:37.880Z,0.80
2018-06-30T14:12:05.614Z,0.70
2018-06-30T14:14:33.306Z,0.73
2018-06-30T14:17:00.940Z,0.80
2018-06-30T14:19:28.561Z,0.70
2018-06-30T14:21:56.218Z,0.90
2018-06-30T14:24:23.910Z,0.70
2018-06-30T14:26:51.614Z,0.70
2018-06-30T14:29:19.276Z,0.70
2018-06-30T14:31:46.921Z,0.70
2018-06-30T14:34:14.574Z,0.77
2018-06-30T14:36:42.249Z,0.70
2018-06-30T14:39:11.542Z,0.83
2018-06-30T14:41:39.306Z,0.90
2018-06-30T14:44:07.079Z,0.80
2018-06-30T14:46:35.063Z,0.80
2018-06-30T14:49:03.344Z,0.70
2018-06-30T14:51:31.102Z,0.70
2018-06-30T14:53:58.769Z,0.77
2018-06-30T14:56:26.486Z,0.70
2018-06-30T14:58:54.350Z,0.70
2018-06-30T15:01:22.078Z,0.70
2018-06-30T15:03:49.804Z,0.77
2018-06-30T15:06:17.497Z,0.60
2018-06-30T15:08:45.227Z,0.67
2018-06-30T15:11:12.887Z,0.60
2018-06-30T15:13:40.521Z,0.70
2018-06-30T15:16:08.243Z,0.70
2018-06-30T15:18:35.962Z,0.60
2018-06-30T15:21:03.678Z,0.80
2018-06-30T15:23:31.351Z,1.30
2018-06-30T15:25:59.015Z,0.87
2018-06-30T15:28:26.674Z,0.70
2018-06-30T15:30:54.315Z,0.67
2018-06-30T15:33:21.979Z,0.80
2018-06-30T15:35:49.729Z,0.73
2018-06-30T15:38:17.323Z,0.73
2018-06-30T15:40:45.050Z,0.70
2018-06-30T15:43:12.742Z,0.80
2018-06-30T15:45:40.459Z,0.63
2018-06-30T15:48:08.146Z,0.70
2018-06-30T15:50:35.857Z,0.70
2018-06-30T15:53:03.565Z,1.03
2018-06-30T15:55:31.221Z,0.90
2018-06-30T15:57:58.903Z,0.70
2018-06-30T16:00:26.586Z,0.80
2018-06-30T16:02:54.339Z,0.77
2018-06-30T16:05:22.027Z,0.70
2018-06-30T16:07:49.665Z,3.53
2018-06-30T16:10:17.338Z,1.10
2018-06-30T16:12:45.073Z,3.43
2018-06-30T16:15:12.754Z,1.13
2018-06-30T16:17:40.418Z,0.90
2018-06-30T16:20:08.186Z,0.83
2018-06-30T16:22:35.864Z,0.70
2018-06-30T16:25:04.037Z,1.00
2018-06-30T16:27:31.718Z,1.30
2018-06-30T16:29:59.377Z,1.40
2018-06-30T16:32:27.042Z,1.10
2018-06-30T16:34:54.678Z,1.30
2018-06-30T16:37:22.342Z,1.33
2018-06-30T16:39:49.991Z,1.17
2018-06-30T16:42:17.736Z,1.20
2018-06-30T16:44:45.397Z,1.10
2018-06-30T16:47:13.188Z,1.00
2018-06-30T16:49:41.136Z,0.90
2018-06-30T16:52:08.794Z,1.00
2018-06-30T16:54:36.437Z,0.77
2018-06-30T16:57:04.153Z,0.80
2018-06-30T16:59:31.842Z,1.10
2018-06-30T17:01:59.594Z,0.80
2018-06-30T17:04:27.244Z,0.70
2018-06-30T17:06:54.974Z,1.00
2018-06-30T17:09:22.610Z,0.77
2018-06-30T17:11:50.341Z,0.80
2018-06-30T17:14:17.979Z,0.60
2018-06-30T17:16:45.644Z,0.70
2018-06-30T17:19:13.305Z,0.70
2018-06-30T17:21:42.019Z,0.80
2018-06-30T17:24:09.701Z,0.60
2018-06-30T17:26:37.448Z,0.70
2018-06-30T17:29:05.044Z,0.80
2018-06-30T17:31:32.726Z,0.80
2018-06-30T17:34:00.402Z,0.70
2018-06-30T17:36:28.041Z,2.30
2018-06-30T17:38:55.744Z,2.90
2018-06-30T17:41:23.392Z,1.20
2018-06-30T17:43:51.307Z,1.23
2018-06-30T17:46:18.960Z,0.90
2018-06-30T17:48:46.658Z,0.90
2018-06-30T17:51:14.419Z,1.20
2018-06-30T17:53:42.055Z,1.20
2018-06-30T17:56:09.726Z,0.93
2018-06-30T17:58:37.391Z,1.30
2018-06-30T18:01:05.092Z,1.10
2018-06-30T18:03:32.800Z,1.00
2018-06-30T18:06:00.463Z,1.43
2018-06-30T18:08:28.113Z,1.00
2018-06-30T18:10:55.922Z,0.93
2018-06-30T18:13:23.656Z,0.90
2018-06-30T18:15:51.369Z,0.90
2018-06-30T18:18:18.996Z,0.90
2018-06-30T18:20:46.670Z,0.80
2018-06-30T18:23:14.322Z,0.87
2018-06-30T18:25:42.020Z,0.73
2018-06-30T18:28:09.692Z,0.83
2018-06-30T18:30:37.407Z,1.07
2018-06-30T18:33:05.068Z,0.80
2018-06-30T18:35:32.773Z,0.80
2018-06-30T18:38:00.503Z,0.70
2018-06-30T18:40:28.200Z,0.80
2018-06-30T18:42:55.861Z,0.80
2018-06-30T18:45:23.547Z,0.70
2018-06-30T18:47:51.287Z,0.80
2018-06-30T18:50:18.945Z,0.80
2018-06-30T18:52:47.090Z,1.10
2018-06-30T18:55:14.818Z,0.70
2018-06-30T18:57:42.510Z,0.82
2018-06-30T19:00:10.279Z,0.80
2018-06-30T19:02:37.970Z,1.20
2018-06-30T19:05:05.722Z,0.95
2018-06-30T19:07:33.433Z,1.12
2018-06-30T19:10:01.371Z,1.50
2018-06-30T19:12:29.026Z,1.20
2018-06-30T19:14:56.838Z,1.00
2018-06-30T19:17:24.509Z,1.10
2018-06-30T19:19:52.444Z,1.10
2018-06-30T19:22:20.163Z,1.10
2018-06-30T19:24:47.962Z,1.50
2018-06-30T19:27:15.623Z,1.10
2018-06-30T19:29:43.330Z,1.20
2018-06-30T19:32:10.996Z,1.32
2018-06-30T19:34:38.677Z,1.10
2018-06-30T19:37:06.363Z,1.15
2018-06-30T19:39:34.172Z,1.25
2018-06-30T19:42:01.881Z,1.10
2018-06-30T19:44:29.521Z,1.25
2018-06-30T19:46:57.198Z,1.20
2018-06-30T19:49:24.885Z,1.30
2018-06-30T19:51:52.533Z,1.20
2018-06-30T19:54:20.165Z,1.05
2018-06-30T19:56:47.876Z,1.10
2018-06-30T19:59:25.661Z,1.00
2018-06-30T20:01:53.328Z,0.93
2018-06-30T20:04:20.985Z,0.90
2018-06-30T20:06:48.652Z,0.80
2018-06-30T20:09:16.416Z,0.82
2018-06-30T20:11:46.138Z,0.80
2018-06-30T20:14:13.796Z,0.70
2018-06-30T20:16:41.502Z,0.80
2018-06-30T20:19:09.151Z,0.78
2018-06-30T20:21:36.809Z,0.70
2018-06-30T20:24:04.488Z,0.90
2018-06-30T20:26:33.016Z,0.80
2018-06-30T20:29:00.729Z,0.70
2018-06-30T20:31:28.417Z,0.72
2018-06-30T20:33:56.078Z,0.80
2018-06-30T20:36:23.796Z,0.80
2018-06-30T20:38:51.589Z,0.80
2018-06-30T20:41:19.371Z,0.78
2018-06-30T20:43:47.071Z,0.78
2018-06-30T20:46:14.727Z,0.80
2018-06-30T20:48:42.487Z,0.70
2018-06-30T20:51:10.122Z,0.70
2018-06-30T20:53:38.912Z,0.95
2018-06-30T20:56:06.644Z,0.70
2018-06-30T20:58:34.275Z,0.88
2018-06-30T21:01:02.022Z,0.70
2018-06-30T21:03:29.689Z,0.70
2018-06-30T21:05:57.361Z,0.70
2018-06-30T21:08:25.053Z,0.70
2018-06-30T21:10:52.869Z,1.30
2018-06-30T21:13:20.530Z,1.00
2018-06-30T21:15:48.254Z,1.25
2018-06-30T21:18:15.983Z,1.30
2018-06-30T21:20:43.708Z,0.90
2018-06-30T21:23:11.431Z,0.90
2018-06-30T21:25:39.106Z,0.90
2018-06-30T21:28:06.956Z,0.90
2018-06-30T21:30:34.638Z,0.90
2018-06-30T21:33:02.315Z,0.70
2018-06-30T21:35:29.978Z,0.80
2018-06-30T21:37:57.638Z,0.90
2018-06-30T21:40:25.260Z,0.80
2018-06-30T21:42:52.974Z,0.82
2018-06-30T21:45:20.638Z,1.10
2018-06-30T21:47:48.295Z,0.70
2018-06-30T21:50:15.953Z,0.80
2018-06-30T21:52:43.584Z,0.80
2018-06-30T21:55:11.156Z,0.70
2018-06-30T21:57:38.835Z,0.70
2018-06-30T22:00:10.238Z,0.70
2018-06-30T22:02:37.937Z,0.85
2018-06-30T22:05:05.658Z,0.80
2018-06-30T22:07:33.325Z,0.85
2018-06-30T22:10:00.957Z,0.80
2018-06-30T22:12:28.623Z,0.90
2018-06-30T22:14:56.555Z,0.70
2018-06-30T22:17:24.266Z,0.90
2018-06-30T22:19:51.935Z,1.00
2018-06-30T22:22:19.581Z,0.70
2018-06-30T22:24:47.268Z,0.80
2018-06-30T22:27:14.901Z,0.80
2018-06-30T22:29:42.562Z,0.90
2018-06-30T22:32:10.250Z,0.70
2018-06-30T22:34:37.912Z,0.80
2018-06-30T22:37:05.765Z,0.90
2018-06-30T22:39:44.696Z,0.80
2018-06-30T22:42:12.404Z,0.70
2018-06-30T22:44:40.059Z,0.80
2018-06-30T22:47:08.127Z,0.90
2018-06-30T22:49:35.788Z,1.20
2018-06-30T22:52:03.475Z,0.70
2018-06-30T22:54:31.138Z,0.85
2018-06-30T22:56:58.801Z,1.00
2018-06-30T22:59:26.442Z,0.80
2018-06-30T23:01:54.135Z,0.82
2018-06-30T23:04:21.830Z,0.80
2018-06-30T23:06:49.498Z,0.90
2018-06-30T23:09:17.139Z,0.90
2018-06-30T23:11:44.818Z,0.85
2018-06-30T23:14:12.474Z,0.93
2018-06-30T23:16:40.154Z,0.80
2018-06-30T23:19:07.819Z,1.10
2018-06-30T23:21:35.471Z,0.70
2018-06-30T23:24:03.187Z,1.00
2018-06-30T23:26:30.922Z,0.80
2018-06-30T23:28:58.550Z,0.90
2018-06-30T23:31:26.215Z,0.80
2018-06-30T23:33:53.869Z,1.10
2018-06-30T23:36:21.514Z,0.88
2018-06-30T23:38:49.154Z,0.80
2018-06-30T23:41:16.825Z,0.93
2018-06-30T23:43:44.532Z,1.05
2018-06-30T23:46:12.177Z,0.70
2018-06-30T23:48:39.834Z,0.90
2018-06-30T23:51:07.531Z,0.95
2018-06-30T23:53:35.199Z,1.05
2018-06-30T23:56:02.937Z,1.00
2018-06-30T23:58:30.590Z,0.82
